地図

経路データ

SID SEASON NUMBER BASIN SUBBASIN NAME ISO_TIME NATURE LAT LON WMO_WIND WMO_PRES WMO_AGENCY TRACK_TYPE DIST2LAND LANDFALL IFLAG USA_AGENCY USA_ATCF_ID USA_LAT USA_LON USA_RECORD USA_STATUS USA_WIND USA_PRES USA_SSHS USA_R34_NE USA_R34_SE USA_R34_SW USA_R34_NW USA_R50_NE USA_R50_SE USA_R50_SW USA_R50_NW USA_R64_NE USA_R64_SE USA_R64_SW USA_R64_NW USA_POCI USA_ROCI USA_RMW USA_EYE TOKYO_LAT TOKYO_LON TOKYO_GRADE TOKYO_WIND TOKYO_PRES TOKYO_R50_DIR TOKYO_R50_LONG TOKYO_R50_SHORT TOKYO_R30_DIR TOKYO_R30_LONG TOKYO_R30_SHORT TOKYO_LAND CMA_LAT CMA_LON CMA_CAT CMA_WIND CMA_PRES HKO_LAT HKO_LON HKO_CAT HKO_WIND HKO_PRES NEWDELHI_LAT NEWDELHI_LON NEWDELHI_GRADE NEWDELHI_WIND NEWDELHI_PRES NEWDELHI_CI NEWDELHI_DP NEWDELHI_POCI REUNION_LAT REUNION_LON REUNION_TYPE REUNION_WIND REUNION_PRES REUNION_TNUM REUNION_CI REUNION_RMW REUNION_R34_NE REUNION_R34_SE REUNION_R34_SW REUNION_R34_NW REUNION_R50_NE REUNION_R50_SE REUNION_R50_SW REUNION_R50_NW REUNION_R64_NE REUNION_R64_SE REUNION_R64_SW REUNION_R64_NW BOM_LAT BOM_LON BOM_TYPE BOM_WIND BOM_PRES BOM_TNUM BOM_CI BOM_RMW BOM_R34_NE BOM_R34_SE BOM_R34_SW BOM_R34_NW BOM_R50_NE BOM_R50_SE BOM_R50_SW BOM_R50_NW BOM_R64_NE BOM_R64_SE BOM_R64_SW BOM_R64_NW BOM_ROCI BOM_POCI BOM_EYE BOM_POS_METHOD BOM_PRES_METHOD NADI_LAT NADI_LON NADI_CAT NADI_WIND NADI_PRES WELLINGTON_LAT WELLINGTON_LON WELLINGTON_WIND WELLINGTON_PRES DS824_LAT DS824_LON DS824_STAGE DS824_WIND DS824_PRES TD9636_LAT TD9636_LON TD9636_STAGE TD9636_WIND TD9636_PRES TD9635_LAT TD9635_LON TD9635_WIND TD9635_PRES TD9635_ROCI NEUMANN_LAT NEUMANN_LON NEUMANN_CLASS NEUMANN_WIND NEUMANN_PRES MLC_LAT MLC_LON MLC_CLASS MLC_WIND MLC_PRES USA_GUST BOM_GUST BOM_GUST_PER REUNION_GUST REUNION_GUST_PER USA_SEAHGT USA_SEARAD_NE USA_SEARAD_SE USA_SEARAD_SW USA_SEARAD_NW STORM_SPEED STORM_DIR
2011311N13111 2011 84 WP MM NOT_NAMED 2011-11-06 18:00:00 TS 13.1000 110.800 main 142 142 __O___________ -1 13.1000 110.800 0 19 1006 6 5
2011311N13111 2011 84 WP MM NOT_NAMED 2011-11-06 21:00:00 TS 13.3975 110.808 main 151 151 __P___________ -1 13.3975 110.808 0 19 1004 6 1
2011311N13111 2011 84 WP MM NOT_NAMED 2011-11-07 00:00:00 TS 13.7000 110.800 main 162 161 __O___________ -1 13.7000 110.800 0 19 1002 6 354
2011311N13111 2011 84 WP MM NOT_NAMED 2011-11-07 03:00:00 TS 14.0324 110.752 main 162 152 __P___________ -1 14.0324 110.752 0 19 1002 11 355
2011311N13111 2011 84 WP MM NOT_NAMED 2011-11-07 06:00:00 TS 14.7600 110.700 main 172 164 O_O___________ jtwc_wp WP242011 15.8000 111.100 DB 20 1007 -3 1004 180 40 14.5000 110.600 0 19 1002 14 348
2011311N13111 2011 84 WP MM NOT_NAMED 2011-11-07 09:00:00 TS 15.4241 110.440 main 160 145 P_P___________ WP242011 15.7275 110.670 DB 20 1007 -3 1004 180 40 15.2724 110.325 0 24 1001 13 329
2011311N13111 2011 84 WP MM NOT_NAMED 2011-11-07 12:00:00 TS 15.8286 110.029 main 135 100 O_O___________ jtwc_wp WP242011 15.6000 110.200 DB 20 1007 -3 1004 180 40 16.0000 109.900 1 29 1000 10 296
2011311N13111 2011 84 WP MM NOT_NAMED 2011-11-07 15:00:00 TS 15.8753 109.476 main 100 61 P_P___________ WP242011 15.4177 109.690 DB 22 1005 -3 1004 180 35 16.3330 109.262 1 29 1000 10 277
2011311N13111 2011 84 WP MM NOT_NAMED 2011-11-07 18:00:00 TS 15.9500 109.000 main 67 54 O_O___________ jtwc_wp WP242011 15.4000 109.300 TD 25 1004 -1 1004 180 30 16.5000 108.700 1 29 1000 8 301
2011311N13111 2011 84 WP MM NOT_NAMED 2011-11-07 21:00:00 TS 16.2672 108.790 main 63 63 P_P___________ WP242011 15.8048 109.145 TD 25 1004 -1 1004 180 30 16.7295 108.435 1 29 1000 7 348
2011311N13111 2011 84 WP MM NOT_NAMED 2011-11-08 00:00:00 TS 16.6000 108.850 main 92 92 O_O___________ jtwc_wp WP242011 16.3000 109.200 TD 25 1004 -1 1004 180 30 16.9000 108.500 1 29 1000 6 39
2011311N13111 2011 84 WP MM NOT_NAMED 2011-11-08 03:00:00 TS 16.7516 109.202 main 131 131 P_P___________ WP242011 16.5227 109.450 TD 25 1004 -1 1004 170 30 16.9805 108.955 1 27 1002 8 71
2011311N13111 2011 84 WP MM NOT_NAMED 2011-11-08 06:00:00 TS 16.8500 109.600 main 145 134 O_O___________ jtwc_wp WP242011 16.7000 109.700 TD 25 1004 -1 1005 160 30 17.0000 109.500 1 25 1004 5 59
2011311N13111 2011 84 WP MM NOT_NAMED 2011-11-08 09:00:00 TS 17.0336 109.694 main 134 123 P_P___________ WP242011 17.0674 109.643 TD 25 1004 -1 1006 160 30 16.9998 109.745 1 25 1004 3 25
2011311N13111 2011 84 WP MM NOT_NAMED 2011-11-08 12:00:00 TS 17.1500 109.750 main 112 112 O_O___________ jtwc_wp WP242011 17.3000 109.600 TD 25 1004 -1 1008 160 30 17.0000 109.900 1 25 1004 3 75
2011311N13111 2011 84 WP MM NOT_NAMED 2011-11-08 15:00:00 TS 17.0986 109.951 main 127 127 P_P___________ WP242011 17.1473 109.802 TD 22 1005 -1 1008 160 25 17.0500 110.100 1 22 1005 5 115
2011311N13111 2011 84 WP MM NOT_NAMED 2011-11-08 18:00:00 TS 16.9286 110.243 main 154 154 O_O___________ jtwc_wp WP242011 16.8000 110.200 DB 20 1007 -3 1009 160 20 17.1000 110.300 0 19 1006 8 123
2011311N13111 2011 84 WP MM NOT_NAMED 2011-11-08 21:00:00 TS 16.6509 110.670 main 198 198 P_P___________ WP242011 16.4201 110.756 DB 17 1008 -3 1009 160 20 17.1125 110.500 0 19 1006 12 123
2011311N13111 2011 84 WP MM NOT_NAMED 2011-11-09 00:00:00 TS 16.3000 111.260 main 272 272 O_O___________ jtwc_wp WP242011 16.1000 111.400 DB 15 1010 -3 1009 160 20 17.1000 110.700 0 19 1006 14 118
2011311N13111 2011 84 WP MM NOT_NAMED 2011-11-09 03:00:00 NR 15.9823 111.992 main 342 342 P_____________ WP242011 15.9823 111.992 DB 15 1010 -3 0 13 103
2011311N13111 2011 84 WP MM NOT_NAMED 2011-11-09 06:00:00 NR 16.0000 112.600 main 381 381 O_____________ jtwc_wp WP242011 16.0000 112.600 DB 15 1010 -3 12 86
2011311N13111 2011 84 WP MM NOT_NAMED 2011-11-09 09:00:00 NR 16.0700 113.257 main 423 423 P_____________ WP242011 16.0700 113.257 DB 15 1010 -3 13 81
2011311N13111 2011 84 WP MM NOT_NAMED 2011-11-09 12:00:00 NR 16.2000 113.900 main 463 463 O_____________ jtwc_wp WP242011 16.2000 113.900 DB 15 1010 -3 12 77
2011311N13111 2011 84 WP MM NOT_NAMED 2011-11-09 15:00:00 NR 16.3499 114.495 main 508 501 P_____________ WP242011 16.3499 114.495 DB 15 1010 -3 11 74
2011311N13111 2011 84 WP MM NOT_NAMED 2011-11-09 18:00:00 NR 16.5000 115.000 main 504 463 O_____________ jtwc_wp WP242011 16.5000 115.000 DB 15 1010 -3 9 73
2011311N13111 2011 84 WP MM NOT_NAMED 2011-11-09 21:00:00 NR 16.6125 115.385 main 463 434 P_____________ WP242011 16.6125 115.385 DB 15 1010 -3 7 73
2011311N13111 2011 84 WP MM NOT_NAMED 2011-11-10 00:00:00 NR 16.7000 115.700 main 434 O_____________ jtwc_wp WP242011 16.7000 115.700 DB 15 1010 -3 6 74

デジタル台風データ・検索

IBTrACS Databaseについて

本データベースは、米国NOAAが公開する1842年以降の世界の熱帯低気圧のベストトラックデータアーカイブInternational Best Track Archive for Climate Stewardship (IBTrACS)を、ウェブで閲覧しやすい形式に変換したものです。

最終更新日:2021-12-06